Time;durP1;ratioP1;P1;durP2;ratioP2;P2;SDS_P1;SDS_P2;PMS_P1;PMS_P2;Temp;Humidity;BMP_temperature;BMP_pressure;BME280_temperature;BME280_humidity;BME280_pressure;Samples;Min_cycle;Max_cycle;Signal;HPM_P1;HPM_P2
2023/04/24 00:01:19;;;;;;;2.60;1.65;;;;;;;-144.87;100.00;61487.56;4945615;28;20039;-79
2023/04/24 00:03:45;;;;;;;1.25;0.60;;;;;;;-144.87;100.00;61487.56;4914979;29;20037;-79
2023/04/24 00:06:12;;;;;;;3.13;1.55;;;;;;;-144.87;100.00;61487.56;4931296;29;20046;-81
2023/04/24 00:08:38;;;;;;;2.13;1.60;;;;;;;-144.87;100.00;61487.56;4899059;29;21804;-80
2023/04/24 00:11:05;;;;;;;4.03;2.33;;;;;;;-144.87;100.00;61487.56;4913492;29;20054;-80
2023/04/24 00:13:31;;;;;;;4.82;2.75;;;;;;;-144.87;100.00;61487.56;4930765;28;20074;-80
2023/04/24 00:15:57;;;;;;;6.95;3.80;;;;;;;-144.87;100.00;61487.56;4914046;29;20551;-80
2023/04/24 00:18:23;;;;;;;9.80;4.10;;;;;;;-144.87;100.00;61487.56;4928927;28;20039;-80
2023/04/24 00:20:50;;;;;;;7.95;4.50;;;;;;;-144.87;100.00;61487.56;4914915;28;20194;-80
2023/04/24 00:23:16;;;;;;;5.70;4.40;;;;;;;-144.87;100.00;61487.56;4930880;28;20051;-80
2023/04/24 00:25:42;;;;;;;8.18;3.35;;;;;;;-144.87;100.00;61487.56;4913999;29;20118;-80
2023/04/24 00:28:09;;;;;;;5.18;2.80;;;;;;;-144.87;100.00;61487.56;4951817;29;20066;-80
2023/04/24 00:30:35;;;;;;;4.53;2.88;;;;;;;-144.87;100.00;61487.56;4922423;29;20039;-80
2023/04/24 00:33:02;;;;;;;6.32;3.00;;;;;;;-144.87;100.00;61487.56;4939214;28;20055;-81
2023/04/24 00:35:29;;;;;;;5.90;3.38;;;;;;;-144.87;100.00;61487.56;4930614;28;20102;-81
2023/04/24 00:37:55;;;;;;;3.60;3.03;;;;;;;-144.87;100.00;61487.56;4912299;29;20093;-81
2023/04/24 00:40:21;;;;;;;4.80;3.70;;;;;;;-144.87;100.00;61487.56;4916100;29;20045;-81
2023/04/24 00:42:48;;;;;;;5.97;4.18;;;;;;;-144.87;100.00;61487.56;4912880;29;20035;-81
2023/04/24 00:45:14;;;;;;;9.57;4.80;;;;;;;-144.87;100.00;61487.56;4944754;28;20040;-81
2023/04/24 00:47:42;;;;;;;8.20;4.80;;;;;;;-144.87;100.00;61487.56;4912367;29;20150;-77
2023/04/24 00:50:08;;;;;;;7.38;4.93;;;;;;;-144.87;100.00;61487.56;4914929;29;20081;-79
2023/04/24 00:52:35;;;;;;;6.15;4.55;;;;;;;-144.87;100.00;61487.56;4914775;29;20032;-79
2023/04/24 00:55:02;;;;;;;7.90;4.63;;;;;;;-144.87;100.00;61487.56;4931312;29;20414;-79
2023/04/24 00:57:28;;;;;;;6.32;4.47;;;;;;;-144.87;100.00;61487.56;4900872;29;20047;-80
2023/04/24 00:59:55;;;;;;;6.70;4.32;;;;;;;-144.87;100.00;61487.56;4915666;29;20378;-80
2023/04/24 01:02:22;;;;;;;8.80;4.53;;;;;;;-144.87;100.00;61487.56;4926108;29;20031;-82
2023/04/24 01:04:50;;;;;;;8.02;4.80;;;;;;;-144.87;100.00;61487.56;4915679;29;20066;-81
2023/04/24 01:07:21;;;;;;;6.93;4.68;;;;;;;-144.87;100.00;61487.56;4899897;29;20023;-81
2023/04/24 01:09:50;;;;;;;7.60;5.28;;;;;;;-144.87;100.00;61487.56;4947346;28;20510;-81
2023/04/24 01:12:19;;;;;;;8.82;5.53;;;;;;;-144.87;100.00;61487.56;4919219;28;20031;-80
2023/04/24 01:14:45;;;;;;;8.30;5.63;;;;;;;-144.87;100.00;61487.56;4937668;28;20051;-81
2023/04/24 01:17:12;;;;;;;8.30;5.65;;;;;;;-144.87;100.00;61487.56;4936414;29;20039;-81
2023/04/24 01:19:39;;;;;;;8.15;5.65;;;;;;;-144.87;100.00;61487.56;4940833;29;20050;-80
2023/04/24 01:22:14;;;;;;;8.45;4.47;;;;;;;-144.87;100.00;61487.56;4952362;29;20035;-81
2023/04/24 01:24:41;;;;;;;7.45;4.55;;;;;;;-144.87;100.00;61487.56;4966297;28;20050;-80
2023/04/24 01:27:09;;;;;;;7.40;5.05;;;;;;;-144.87;100.00;61487.56;4933383;28;20193;-81
2023/04/24 01:29:36;;;;;;;7.07;3.28;;;;;;;-144.87;100.00;61487.56;4938896;28;20046;-81
2023/04/24 01:32:03;;;;;;;3.78;3.00;;;;;;;-144.87;100.00;61487.56;4924212;28;20071;-80
2023/04/24 01:34:31;;;;;;;5.30;3.42;;;;;;;-144.87;100.00;61487.56;4941940;28;20027;-81
2023/04/24 01:36:57;;;;;;;6.68;3.97;;;;;;;-144.87;100.00;61487.56;4921950;28;20039;-81
2023/04/24 01:39:25;;;;;;;6.50;4.13;;;;;;;-144.87;100.00;61487.56;4924123;29;20027;-81
2023/04/24 01:41:54;;;;;;;5.13;3.75;;;;;;;-144.87;100.00;61487.56;4926349;29;20039;-82
2023/04/24 01:44:20;;;;;;;7.60;4.95;;;;;;;-144.87;100.00;61487.56;4932136;29;20657;-80
2023/04/24 01:46:47;;;;;;;9.52;5.30;;;;;;;-144.87;100.00;61487.56;4928118;29;20031;-80
2023/04/24 01:49:14;;;;;;;10.93;5.97;;;;;;;-144.87;100.00;61487.56;4922010;29;20031;-81
2023/04/24 01:51:40;;;;;;;10.77;5.45;;;;;;;-144.87;100.00;61487.56;4922969;29;20496;-80
2023/04/24 01:54:06;;;;;;;9.60;6.47;;;;;;;-144.87;100.00;61487.56;4916976;29;20412;-80
2023/04/24 01:56:37;;;;;;;12.07;6.35;;;;;;;-144.87;100.00;61487.56;4901929;29;20047;-81
2023/04/24 01:59:04;;;;;;;11.77;6.43;;;;;;;-144.87;100.00;61487.56;4901410;29;21647;-81
2023/04/24 02:01:36;;;;;;;11.27;6.65;;;;;;;-144.87;100.00;61487.56;4916853;29;20032;-80
2023/04/24 02:04:02;;;;;;;10.40;7.25;;;;;;;-144.87;100.00;61487.56;4945816;28;20051;-80
2023/04/24 02:06:29;;;;;;;13.65;7.68;;;;;;;-144.87;100.00;61487.56;4917922;28;20035;-79
2023/04/24 02:08:55;;;;;;;11.77;7.45;;;;;;;-144.87;100.00;61487.56;4950006;28;20035;-80
2023/04/24 02:11:22;;;;;;;14.70;7.35;;;;;;;-144.87;100.00;61487.56;4934929;29;20067;-79
2023/04/24 02:14:09;;;;;;;14.82;7.57;;;;;;;-144.87;100.00;61487.56;4932673;29;20039;-79
2023/04/24 02:16:35;;;;;;;12.18;7.55;;;;;;;-144.87;100.00;61487.56;4954814;28;20035;-79
2023/04/24 02:19:02;;;;;;;9.25;6.88;;;;;;;-144.87;100.00;61487.56;4926195;28;20035;-80
2023/04/24 02:21:28;;;;;;;10.68;6.20;;;;;;;-144.87;100.00;61487.56;4926933;28;20563;-79
2023/04/24 02:23:55;;;;;;;11.20;6.60;;;;;;;-144.87;100.00;61487.56;4939974;29;20035;-80
2023/04/24 02:26:21;;;;;;;8.02;5.25;;;;;;;-144.87;100.00;61487.56;4940852;29;20457;-78
2023/04/24 02:28:47;;;;;;;9.77;5.72;;;;;;;-144.87;100.00;61487.56;4921810;29;20046;-80
2023/04/24 02:31:14;;;;;;;8.60;4.47;;;;;;;-144.87;100.00;61487.56;4941290;29;20023;-79
2023/04/24 02:33:41;;;;;;;6.20;3.58;;;;;;;-144.87;100.00;61487.56;4973029;28;20507;-79
2023/04/24 02:36:07;;;;;;;7.80;3.38;;;;;;;-144.87;100.00;61487.56;4936361;28;20035;-79
2023/04/24 02:38:33;;;;;;;10.02;3.72;;;;;;;-144.87;100.00;61487.56;4923654;28;20505;-80
2023/04/24 02:41:00;;;;;;;4.65;3.17;;;;;;;-144.87;100.00;61487.56;4934456;29;20441;-79
2023/04/24 02:43:26;;;;;;;6.22;3.50;;;;;;;-144.87;100.00;61487.56;4936292;29;20050;-79
2023/04/24 02:45:53;;;;;;;14.70;4.50;;;;;;;-144.87;100.00;61487.56;4937750;29;20476;-80
2023/04/24 02:48:20;;;;;;;10.02;3.90;;;;;;;-144.87;100.00;61487.56;4934979;29;20051;-79
2023/04/24 02:50:47;;;;;;;8.43;3.97;;;;;;;-144.87;100.00;61487.56;4933076;29;20089;-80
2023/04/24 02:53:13;;;;;;;10.05;4.85;;;;;;;-144.87;100.00;61487.56;4941042;28;20038;-80
2023/04/24 02:55:39;;;;;;;9.32;4.72;;;;;;;-144.87;100.00;61487.56;4940295;28;20047;-79
2023/04/24 02:58:06;;;;;;;10.63;4.85;;;;;;;-144.87;100.00;61487.56;4952536;28;20031;-79
2023/04/24 03:00:33;;;;;;;10.02;5.32;;;;;;;-144.87;100.00;61487.56;4924346;29;20043;-80
2023/04/24 03:02:59;;;;;;;11.45;5.25;;;;;;;-144.87;100.00;61487.56;4933365;29;20170;-80
2023/04/24 03:05:27;;;;;;;8.82;5.45;;;;;;;-144.87;100.00;61487.56;4919295;28;20121;-79
2023/04/24 03:07:53;;;;;;;13.40;6.20;;;;;;;-144.87;100.00;61487.56;4904211;29;20031;-81
2023/04/24 03:10:22;;;;;;;11.90;6.38;;;;;;;-144.87;100.00;61487.56;4917661;28;20094;-80
2023/04/24 03:12:48;;;;;;;13.60;6.43;;;;;;;-144.87;100.00;61487.56;4910798;29;20035;-80
2023/04/24 03:15:15;;;;;;;11.50;6.07;;;;;;;-144.87;100.00;61487.56;4921248;29;20466;-80
2023/04/24 03:17:41;;;;;;;15.90;6.40;;;;;;;-144.87;100.00;61487.56;4927183;28;20054;-79
2023/04/24 03:20:08;;;;;;;10.32;5.70;;;;;;;-144.87;100.00;61487.56;4937503;28;20035;-81
2023/04/24 03:22:35;;;;;;;8.23;5.00;;;;;;;-144.87;100.00;61487.56;4940318;28;20098;-81
2023/04/24 03:25:08;;;;;;;8.13;4.13;;;;;;;-144.87;100.00;61487.56;4924363;28;20091;-79
2023/04/24 03:27:34;;;;;;;5.45;3.70;;;;;;;-144.87;100.00;61487.56;4920608;28;20030;-80
2023/04/24 03:30:05;;;;;;;5.45;3.22;;;;;;;-144.87;100.00;61487.56;4925364;29;20032;-80
2023/04/24 03:32:40;;;;;;;5.28;3.80;;;;;;;-144.87;100.00;61487.56;4933149;28;20031;-79
2023/04/24 03:35:09;;;;;;;5.38;3.72;;;;;;;-144.87;100.00;61487.56;4946926;28;20110;-81
2023/04/24 03:37:36;;;;;;;5.75;3.95;;;;;;;-144.87;100.00;61487.56;4938408;28;20039;-80
2023/04/24 03:40:19;;;;;;;11.57;5.05;;;;;;;-144.87;100.00;61487.56;4922560;29;20042;-78
2023/04/24 03:42:46;;;;;;;7.18;4.60;;;;;;;-144.87;100.00;61487.56;4925371;28;20078;-79
2023/04/24 03:45:12;;;;;;;13.50;6.22;;;;;;;-144.87;100.00;61487.56;4900034;29;20480;-82
2023/04/24 03:47:42;;;;;;;10.63;5.80;;;;;;;-144.87;100.00;61487.56;4900099;29;20039;-80
2023/04/24 03:50:09;;;;;;;11.13;6.35;;;;;;;-144.87;100.00;61487.56;4918675;28;20035;-81
2023/04/24 03:52:36;;;;;;;17.08;8.27;;;;;;;-144.87;100.00;61487.56;4902668;29;20031;-82
2023/04/24 03:55:04;;;;;;;14.40;7.50;;;;;;;-144.87;100.00;61487.56;4922786;28;20040;-80
2023/04/24 03:57:36;;;;;;;16.02;8.13;;;;;;;-144.87;100.00;61487.56;4909633;28;20381;-82
2023/04/24 04:00:11;;;;;;;15.95;7.28;;;;;;;-144.87;100.00;61487.56;4917250;29;20126;-81
2023/04/24 04:02:40;;;;;;;17.13;8.45;;;;;;;-144.87;100.00;61487.56;4940441;28;20036;-80
2023/04/24 04:05:08;;;;;;;16.65;7.82;;;;;;;-144.87;100.00;61487.56;4904098;28;20129;-81
2023/04/24 04:07:35;;;;;;;19.10;8.75;;;;;;;-144.87;100.00;61487.56;4954069;28;20101;-81
2023/04/24 04:10:02;;;;;;;17.65;8.93;;;;;;;-144.87;100.00;61487.56;4917539;28;20040;-81
2023/04/24 04:12:28;;;;;;;22.38;9.93;;;;;;;-144.87;100.00;61487.56;4929077;28;20274;-80
2023/04/24 04:14:54;;;;;;;18.38;8.98;;;;;;;-144.87;100.00;61487.56;4912775;29;20118;-81
2023/04/24 04:17:21;;;;;;;20.40;10.02;;;;;;;-144.87;100.00;61487.56;4917100;29;20117;-80
2023/04/24 04:19:47;;;;;;;22.08;10.65;;;;;;;-144.87;100.00;61487.56;4919941;28;20047;-81
2023/04/24 04:22:13;;;;;;;22.63;10.70;;;;;;;-144.87;100.00;61487.56;4909041;28;20572;-81
2023/04/24 04:24:44;;;;;;;23.97;10.20;;;;;;;-144.87;100.00;61487.56;4932156;28;20083;-81
2023/04/24 04:27:12;;;;;;;30.13;11.35;;;;;;;-144.87;100.00;61487.56;4934013;28;20489;-81
2023/04/24 04:30:04;;;;;;;31.55;11.57;;;;;;;-144.87;100.00;61487.56;4931846;28;20039;-82
2023/04/24 04:32:33;;;;;;;26.65;12.15;;;;;;;-144.87;100.00;61487.56;4931129;28;20039;-81
2023/04/24 04:35:02;;;;;;;31.65;12.85;;;;;;;-144.87;100.00;61487.56;4916486;28;20346;-82
2023/04/24 04:37:31;;;;;;;30.92;12.13;;;;;;;-144.87;100.00;61487.56;4929783;28;20543;-81
2023/04/24 04:40:18;;;;;;;22.45;10.75;;;;;;;-144.87;100.00;61487.56;4916714;28;20402;-81
2023/04/24 04:42:52;;;;;;;29.77;12.88;;;;;;;-144.87;100.00;61487.56;4916239;28;20035;-80
2023/04/24 04:45:20;;;;;;;26.63;11.30;;;;;;;-144.87;100.00;61487.56;4941104;28;20062;-80
2023/04/24 04:48:07;;;;;;;21.42;10.88;;;;;;;-144.87;100.00;61487.56;4949569;28;20039;-81
2023/04/24 04:50:35;;;;;;;25.92;10.25;;;;;;;-144.87;100.00;61487.56;4924841;28;20070;-80
2023/04/24 04:53:06;;;;;;;19.58;9.60;;;;;;;-144.87;100.00;61487.56;4920687;28;20031;-80
2023/04/24 04:55:37;;;;;;;19.88;6.85;;;;;;;-144.87;100.00;61487.56;4920582;28;20460;-80
2023/04/24 04:58:10;;;;;;;9.75;5.65;;;;;;;-144.87;100.00;61487.56;4891642;28;20038;-80
2023/04/24 05:00:37;;;;;;;11.05;5.15;;;;;;;-144.87;100.00;61487.56;4935617;28;20138;-81
2023/04/24 05:03:12;;;;;;;10.00;5.45;;;;;;;-144.87;100.00;61487.56;4923456;28;20035;-79
2023/04/24 05:05:40;;;;;;;10.07;4.05;;;;;;;-144.87;100.00;61487.56;4935480;28;20521;-80
2023/04/24 05:08:09;;;;;;;12.35;4.13;;;;;;;-144.87;100.00;61487.56;4919627;28;20492;-80
2023/04/24 05:10:36;;;;;;;6.40;3.30;;;;;;;-144.87;100.00;61487.56;4919302;28;20105;-80
2023/04/24 05:13:04;;;;;;;10.65;3.50;;;;;;;-144.87;100.00;61487.56;4918880;28;20036;-80
2023/04/24 05:15:31;;;;;;;5.40;2.65;;;;;;;-144.87;100.00;61487.56;4934665;28;20121;-80
2023/04/24 05:17:59;;;;;;;4.82;2.70;;;;;;;-144.87;100.00;61487.56;4913745;28;20050;-81
2023/04/24 05:20:26;;;;;;;7.95;2.85;;;;;;;-144.87;100.00;61487.56;4919997;28;20074;-81
2023/04/24 05:22:54;;;;;;;5.22;2.30;;;;;;;-144.87;100.00;61487.56;4949865;28;20031;-81
2023/04/24 05:25:21;;;;;;;6.70;1.90;;;;;;;-144.87;100.00;61487.56;4934446;28;20027;-81
2023/04/24 05:27:57;;;;;;;2.22;1.73;;;;;;;-144.87;100.00;61487.56;4936942;29;20035;-80
2023/04/24 05:30:24;;;;;;;3.75;2.03;;;;;;;-144.87;100.00;61487.56;4918552;28;20122;-81
2023/04/24 05:32:50;;;;;;;3.83;1.90;;;;;;;-144.87;100.00;61487.56;4917158;28;20784;-81
2023/04/24 05:35:18;;;;;;;10.27;2.22;;;;;;;-144.87;100.00;61487.56;4935129;28;20058;-79
2023/04/24 05:37:45;;;;;;;9.35;2.22;;;;;;;-144.87;100.00;61487.56;4936704;28;20534;-80
2023/04/24 05:40:12;;;;;;;5.82;2.40;;;;;;;-144.87;100.00;61487.56;4917882;28;20035;-82
2023/04/24 05:42:38;;;;;;;4.45;2.70;;;;;;;-144.87;100.00;61487.56;4934928;28;20039;-81
2023/04/24 05:45:05;;;;;;;11.57;4.10;;;;;;;-144.87;100.00;61487.56;4932332;28;20404;-81
2023/04/24 05:47:32;;;;;;;7.30;2.90;;;;;;;-144.87;100.00;61487.56;4934701;29;20089;-81
2023/04/24 05:49:59;;;;;;;5.70;2.88;;;;;;;-144.87;100.00;61487.56;4918744;28;20036;-80
2023/04/24 05:52:25;;;;;;;6.38;3.10;;;;;;;-144.87;100.00;61487.56;4918199;28;20400;-80
2023/04/24 05:54:52;;;;;;;7.70;3.17;;;;;;;-144.87;100.00;61487.56;4918592;28;20109;-83
2023/04/24 05:57:23;;;;;;;6.45;3.55;;;;;;;-144.87;100.00;61487.56;4933604;29;20540;-81
2023/04/24 05:59:53;;;;;;;7.10;3.80;;;;;;;-144.87;100.00;61487.56;4935020;28;20039;-88
2023/04/24 06:02:21;;;;;;;8.15;5.03;;;;;;;-144.87;100.00;61487.56;4918229;28;20031;-82
2023/04/24 06:04:48;;;;;;;13.10;5.13;;;;;;;-144.87;100.00;61487.56;4920811;28;20042;-82
2023/04/24 06:07:14;;;;;;;11.43;7.10;;;;;;;-144.87;100.00;61487.56;4954594;28;20036;-81
2023/04/24 06:09:49;;;;;;;19.73;10.20;;;;;;;-144.87;100.00;61487.56;4917686;28;20035;-81
2023/04/24 06:12:16;;;;;;;26.50;13.27;;;;;;;-144.87;100.00;61487.56;4916355;28;20206;-80
2023/04/24 06:14:55;;;;;;;32.50;16.95;;;;;;;-144.87;100.00;61487.56;4918204;28;20035;-80
2023/04/24 06:17:26;;;;;;;37.35;19.58;;;;;;;-144.87;100.00;61487.56;4918252;29;20039;-80
2023/04/24 06:19:53;;;;;;;41.88;20.13;;;;;;;-144.87;100.00;61487.56;4941541;28;20038;-83
2023/04/24 06:22:21;;;;;;;43.33;20.60;;;;;;;-144.87;100.00;61487.56;4913747;28;20154;-81
2023/04/24 06:24:48;;;;;;;38.80;22.42;;;;;;;-144.87;100.00;61487.56;4924008;28;20077;-81
2023/04/24 06:27:14;;;;;;;45.58;23.08;;;;;;;-144.87;100.00;61487.56;4952066;28;20047;-82
2023/04/24 06:29:41;;;;;;;49.70;24.75;;;;;;;-144.87;100.00;61487.56;4936261;28;20043;-83
2023/04/24 06:32:07;;;;;;;47.05;25.23;;;;;;;-144.87;100.00;61487.56;4934641;29;20041;-80
2023/04/24 06:34:34;;;;;;;46.78;25.77;;;;;;;-144.87;100.00;61487.56;4924325;29;20066;-81
2023/04/24 06:37:01;;;;;;;43.63;24.63;;;;;;;-144.87;100.00;61487.56;4925092;29;20031;-80
2023/04/24 06:39:28;;;;;;;52.30;26.48;;;;;;;-144.87;100.00;61487.56;4918674;29;20035;-81
2023/04/24 06:41:55;;;;;;;49.00;24.02;;;;;;;-144.87;100.00;61487.56;4956078;28;20065;-81
2023/04/24 06:44:22;;;;;;;51.72;25.73;;;;;;;-144.87;100.00;61487.56;4920160;29;20051;-80
2023/04/24 06:46:48;;;;;;;40.33;23.50;;;;;;;-144.87;100.00;61487.56;4940621;29;20086;-80
2023/04/24 06:49:15;;;;;;;37.97;20.70;;;;;;;-144.87;100.00;61487.56;4916712;29;20492;-80
2023/04/24 06:51:42;;;;;;;45.00;20.95;;;;;;;-144.87;100.00;61487.56;4936759;28;20733;-83
2023/04/24 06:54:08;;;;;;;38.60;21.50;;;;;;;-144.87;100.00;61487.56;4938858;28;20043;-80
2023/04/24 06:56:35;;;;;;;43.70;20.65;;;;;;;-144.87;100.00;61487.56;4925653;28;20039;-80
2023/04/24 06:59:01;;;;;;;39.13;20.33;;;;;;;-144.87;100.00;61487.56;4922959;28;20098;-81
2023/04/24 07:01:27;;;;;;;41.30;21.15;;;;;;;-144.87;100.00;61487.56;4937810;28;20386;-81
2023/04/24 07:03:54;;;;;;;37.80;20.30;;;;;;;-144.87;100.00;61487.56;4938577;28;20035;-81
2023/04/24 07:06:22;;;;;;;46.00;22.60;;;;;;;-144.87;100.00;61487.56;4918908;28;20035;-83
2023/04/24 07:08:48;;;;;;;47.85;22.60;;;;;;;-144.87;100.00;61487.56;4935501;28;20035;-82
2023/04/24 07:11:15;;;;;;;43.00;21.13;;;;;;;-144.87;100.00;61487.56;4917827;28;20081;-81
2023/04/24 07:13:41;;;;;;;39.95;20.15;;;;;;;-144.87;100.00;61487.56;4916681;29;20051;-80
2023/04/24 07:16:08;;;;;;;37.88;19.73;;;;;;;-144.87;100.00;61487.56;4936416;28;20031;-80
2023/04/24 07:18:36;;;;;;;50.03;21.95;;;;;;;-144.87;100.00;61487.56;4918581;28;20497;-80
2023/04/24 07:21:02;;;;;;;55.45;24.00;;;;;;;-144.87;100.00;61487.56;4928561;29;20035;-80
2023/04/24 07:23:28;;;;;;;39.55;20.15;;;;;;;-144.87;100.00;61487.56;4934295;29;20091;-81
2023/04/24 07:25:55;;;;;;;46.63;19.10;;;;;;;-144.87;100.00;61487.56;4918742;28;20050;-81
2023/04/24 07:28:21;;;;;;;44.67;18.80;;;;;;;-144.87;100.00;61487.56;4929973;29;20057;-81
2023/04/24 07:30:47;;;;;;;38.97;17.17;;;;;;;-144.87;100.00;61487.56;4918305;28;20039;-82
2023/04/24 07:33:13;;;;;;;56.67;17.60;;;;;;;-144.87;100.00;61487.56;4921782;29;20031;-82
2023/04/24 07:35:41;;;;;;;50.60;16.92;;;;;;;-144.87;100.00;61487.56;4941468;28;20062;-80
2023/04/24 07:38:07;;;;;;;45.50;15.52;;;;;;;-144.87;100.00;61487.56;4935054;29;20548;-81
2023/04/24 07:40:33;;;;;;;52.15;15.07;;;;;;;-144.87;100.00;61487.56;4935615;28;20061;-80
2023/04/24 07:43:00;;;;;;;44.53;15.30;;;;;;;-144.87;100.00;61487.56;4935369;29;20389;-80
2023/04/24 07:45:27;;;;;;;41.00;15.75;;;;;;;-144.87;100.00;61487.56;4936392;29;20051;-80
2023/04/24 07:47:54;;;;;;;42.53;14.25;;;;;;;-144.87;100.00;61487.56;4898199;29;20057;-80
2023/04/24 07:50:20;;;;;;;48.72;13.65;;;;;;;-144.87;100.00;61487.56;4919548;29;20039;-81
2023/04/24 07:52:47;;;;;;;41.38;11.95;;;;;;;-144.87;100.00;61487.56;4925000;29;20115;-81
2023/04/24 07:55:13;;;;;;;37.72;13.13;;;;;;;-144.87;100.00;61487.56;4914421;29;20108;-80
2023/04/24 07:57:41;;;;;;;39.67;9.93;;;;;;;-144.87;100.00;61487.56;4927401;29;20047;-80
2023/04/24 08:00:08;;;;;;;40.97;10.48;;;;;;;-144.87;100.00;61487.56;4942717;29;20134;-80
2023/04/24 08:02:40;;;;;;;35.10;10.02;;;;;;;-144.87;100.00;61487.56;4931380;29;20059;-79
2023/04/24 08:05:08;;;;;;;39.08;9.40;;;;;;;-144.87;100.00;61487.56;4897343;29;20087;-81
2023/04/24 08:07:35;;;;;;;36.17;7.88;;;;;;;-144.87;100.00;61487.56;4926164;29;20516;-80
2023/04/24 08:10:02;;;;;;;30.63;6.32;;;;;;;-144.87;100.00;61487.56;4915261;29;20038;-80
2023/04/24 08:12:31;;;;;;;29.80;6.20;;;;;;;-144.87;100.00;61487.56;4948998;28;20390;-80
2023/04/24 08:14:57;;;;;;;24.65;6.40;;;;;;;-144.87;100.00;61487.56;4928280;29;20414;-82
2023/04/24 08:17:24;;;;;;;28.35;6.68;;;;;;;-144.87;100.00;61487.56;4881496;29;20509;-80
2023/04/24 08:19:53;;;;;;;31.40;5.90;;;;;;;-144.87;100.00;61487.56;4900361;29;20507;-80
2023/04/24 08:22:19;;;;;;;28.60;6.55;;;;;;;-144.87;100.00;61487.56;4915813;29;20044;-80
2023/04/24 08:24:45;;;;;;;22.88;4.75;;;;;;;-144.87;100.00;61487.56;4916698;29;20044;-81
2023/04/24 08:27:11;;;;;;;23.38;5.25;;;;;;;-144.87;100.00;61487.56;4929767;29;20031;-80
2023/04/24 08:29:38;;;;;;;24.30;4.97;;;;;;;-144.87;100.00;61487.56;4930935;29;20055;-80
2023/04/24 08:32:04;;;;;;;21.70;4.10;;;;;;;-144.87;100.00;61487.56;4951475;29;20046;-81
2023/04/24 08:34:30;;;;;;;22.65;4.65;;;;;;;-144.87;100.00;61487.56;4935644;29;20036;-79
2023/04/24 08:36:56;;;;;;;20.88;4.05;;;;;;;-144.87;100.00;61487.56;4920256;29;20067;-81
2023/04/24 08:39:23;;;;;;;20.10;4.70;;;;;;;-144.87;100.00;61487.56;4919395;29;20052;-80
2023/04/24 08:41:49;;;;;;;16.13;3.63;;;;;;;-144.87;100.00;61487.56;4926074;29;20458;-80
2023/04/24 08:44:16;;;;;;;21.65;5.72;;;;;;;-144.87;100.00;61487.56;4916719;29;20056;-80
2023/04/24 08:46:47;;;;;;;21.75;4.63;;;;;;;-144.87;100.00;61487.56;4901411;29;20044;-79
2023/04/24 08:49:16;;;;;;;;;;;;;;;-144.87;100.00;61487.56;4902513;29;20414;-80
2023/04/24 08:51:42;;;;;;;22.15;4.53;;;;;;;-144.87;100.00;61487.56;4930702;29;19914;-81
2023/04/24 08:54:09;;;;;;;16.90;3.53;;;;;;;-144.87;100.00;61487.56;4933926;29;20044;-79
2023/04/24 08:56:40;;;;;;;21.70;5.53;;;;;;;-144.87;100.00;61487.56;4932881;29;20457;-80
2023/04/24 09:02:11;;;;;;;18.30;3.72;;;;;;;-144.87;100.00;61487.56;4947039;28;20410;-80
2023/04/24 09:04:38;;;;;;;20.73;4.68;;;;;;;-144.87;100.00;61487.56;4918358;29;20716;-80
2023/04/24 09:07:06;;;;;;;20.27;4.28;;;;;;;-144.87;100.00;61487.56;4933874;29;20111;-80
2023/04/24 09:09:33;;;;;;;18.02;3.80;;;;;;;-144.87;100.00;61487.56;4919548;29;20590;-80
2023/04/24 09:12:00;;;;;;;16.15;3.90;;;;;;;-144.87;100.00;61487.56;4917392;29;20399;-81
2023/04/24 09:14:27;;;;;;;15.13;4.60;;;;;;;-144.87;100.00;61487.56;4920100;29;20437;-81
2023/04/24 09:16:54;;;;;;;15.45;4.22;;;;;;;-144.87;100.00;61487.56;4936852;29;20036;-81
2023/04/24 09:19:21;;;;;;;23.20;6.30;;;;;;;-144.87;100.00;61487.56;4935360;29;20036;-81
2023/04/24 09:21:47;;;;;;;25.90;5.38;;;;;;;-144.87;100.00;61487.56;4935298;29;20044;-81
2023/04/24 09:24:22;;;;;;;19.20;4.05;;;;;;;-144.87;100.00;61487.56;4938309;29;20035;-81
2023/04/24 09:26:57;;;;;;;13.80;3.58;;;;;;;-144.87;100.00;61487.56;4930477;29;20054;-82
2023/04/24 09:29:23;;;;;;;14.38;3.70;;;;;;;-144.87;100.00;61487.56;4937196;29;20509;-80
2023/04/24 09:31:49;;;;;;;16.13;3.33;;;;;;;-144.87;100.00;61487.56;4939458;29;20106;-82
2023/04/24 09:34:23;;;;;;;9.13;2.75;;;;;;;-144.87;100.00;61487.56;4922349;29;20786;-80
2023/04/24 09:36:49;;;;;;;16.45;3.10;;;;;;;-144.87;100.00;61487.56;4945140;28;20028;-81
2023/04/24 09:39:16;;;;;;;13.30;4.07;;;;;;;-144.87;100.00;61487.56;4935618;29;20041;-81
2023/04/24 09:42:01;;;;;;;14.65;3.13;;;;;;;-144.87;100.00;61487.56;4935028;29;20050;-80
2023/04/24 09:44:28;;;;;;;9.73;2.80;;;;;;;-144.87;100.00;61487.56;4919195;29;20060;-80
2023/04/24 09:46:58;;;;;;;14.23;2.72;;;;;;;-144.87;100.00;61487.56;4918565;29;20038;-80
2023/04/24 09:49:29;;;;;;;11.30;2.53;;;;;;;-144.87;100.00;61487.56;4916766;29;20036;-80
2023/04/24 09:52:03;;;;;;;;;;;;;;;-144.87;100.00;61487.56;4930551;29;20043;-81
2023/04/24 09:54:29;;;;;;;10.18;2.55;;;;;;;-144.87;100.00;61487.56;4918158;29;19983;-80
2023/04/24 09:56:56;;;;;;;8.73;2.63;;;;;;;-144.87;100.00;61487.56;4949697;28;20028;-80
2023/04/24 09:59:23;;;;;;;12.73;2.55;;;;;;;-144.87;100.00;61487.56;4916963;29;20451;-80
2023/04/24 10:01:51;;;;;;;12.55;3.08;;;;;;;-144.87;100.00;61487.56;4932227;29;20043;-79
2023/04/24 10:04:26;;;;;;;14.30;3.22;;;;;;;-144.87;100.00;61487.56;4930109;29;20400;-81
2023/04/24 10:06:55;;;;;;;6.70;1.92;;;;;;;-144.87;100.00;61487.56;4920530;29;20042;-80
2023/04/24 10:09:23;;;;;;;4.63;1.33;;;;;;;-144.87;100.00;61487.56;4903802;29;20039;-81
2023/04/24 10:11:51;;;;;;;3.78;1.13;;;;;;;-144.87;100.00;61487.56;4937204;29;20039;-81
2023/04/24 10:14:25;;;;;;;7.45;1.40;;;;;;;-144.87;100.00;61487.56;4931263;29;20086;-80
2023/04/24 10:16:57;;;;;;;7.45;1.20;;;;;;;-144.87;100.00;61487.56;4931977;29;20067;-81
2023/04/24 10:19:26;;;;;;;4.65;1.20;;;;;;;-144.87;100.00;61487.56;4916270;29;20036;-80
2023/04/24 10:21:55;;;;;;;5.32;1.30;;;;;;;-144.87;100.00;61487.56;4916442;29;20043;-80
2023/04/24 10:24:21;;;;;;;5.60;1.80;;;;;;;-144.87;100.00;61487.56;4934849;29;20443;-82
2023/04/24 10:26:48;;;;;;;6.78;1.40;;;;;;;-144.87;100.00;61487.56;4931872;29;20047;-81
2023/04/24 10:29:17;;;;;;;6.53;1.35;;;;;;;-144.87;100.00;61487.56;4934236;29;20066;-81
2023/04/24 10:31:46;;;;;;;9.75;1.48;;;;;;;-144.87;100.00;61487.56;4936572;29;20035;-81
2023/04/24 10:34:13;;;;;;;9.13;1.85;;;;;;;-144.87;100.00;61487.56;4927941;29;20055;-81
2023/04/24 10:36:43;;;;;;;9.20;1.60;;;;;;;-144.87;100.00;61487.56;4949779;28;20032;-85
2023/04/24 10:39:11;;;;;;;6.35;1.50;;;;;;;-144.87;100.00;61487.56;4940217;28;20035;-80
2023/04/24 10:41:38;;;;;;;8.15;1.45;;;;;;;-144.87;100.00;61487.56;4934076;29;20036;-82
2023/04/24 10:44:13;;;;;;;8.27;2.35;;;;;;;-144.87;100.00;61487.56;4914654;29;20135;-81
2023/04/24 10:46:44;;;;;;;5.75;1.30;;;;;;;-144.87;100.00;61487.56;4933333;29;20032;-80
2023/04/24 10:49:10;;;;;;;6.35;1.92;;;;;;;-144.87;100.00;61487.56;4939413;29;20086;-81
2023/04/24 10:51:53;;;;;;;8.30;1.90;;;;;;;-144.87;100.00;61487.56;4951984;28;20126;-81
2023/04/24 10:54:27;;;;;;;7.68;1.95;;;;;;;-144.87;100.00;61487.56;4934610;29;20044;-81
2023/04/24 10:57:13;;;;;;;8.05;1.85;;;;;;;-144.87;100.00;61487.56;4919425;29;20374;-82
2023/04/24 10:59:40;;;;;;;11.93;2.38;;;;;;;-144.87;100.00;61487.56;4926299;29;20178;-81
2023/04/24 11:02:08;;;;;;;8.05;2.15;;;;;;;-144.87;100.00;61487.56;4935432;29;20062;-82
2023/04/24 11:04:35;;;;;;;8.50;2.15;;;;;;;-144.87;100.00;61487.56;4920147;29;20039;-81
2023/04/24 11:07:04;;;;;;;9.23;2.53;;;;;;;-144.87;100.00;61487.56;4931931;29;20114;-80
2023/04/24 11:09:31;;;;;;;8.82;2.00;;;;;;;-144.87;100.00;61487.56;4951170;29;20117;-81
2023/04/24 11:12:07;;;;;;;10.63;2.08;;;;;;;-144.87;100.00;61487.56;4951511;28;20044;-81